sensor_id;sensor_type;location;lat;lon;timestamp;pressure;altitude;pressure_sealevel;temperature;humidity
68544;BME280;55534;52.222;5.156;2022-07-04T00:02:05;102008.47;;;13.41;100.00
68544;BME280;55534;52.222;5.156;2022-07-04T00:04:31;101978.97;;;13.10;100.00
68544;BME280;55534;52.222;5.156;2022-07-04T00:06:56;101786.03;;;11.82;100.00
68544;BME280;55534;52.222;5.156;2022-07-04T00:09:21;101916.78;;;12.69;100.00
68544;BME280;55534;52.222;5.156;2022-07-04T00:11:47;102089.47;;;13.87;100.00
68544;BME280;55534;52.222;5.156;2022-07-04T00:14:12;102109.78;;;13.97;100.00
68544;BME280;55534;52.222;5.156;2022-07-04T00:16:38;102016.31;;;13.37;100.00
68544;BME280;55534;52.222;5.156;2022-07-04T00:19:03;102115.44;;;14.03;100.00
68544;BME280;55534;52.222;5.156;2022-07-04T00:21:28;101835.22;;;11.96;100.00
68544;BME280;55534;52.222;5.156;2022-07-04T00:23:54;101707.66;;;11.25;100.00
68544;BME280;55534;52.222;5.156;2022-07-04T00:26:19;101724.78;;;11.19;100.00
68544;BME280;55534;52.222;5.156;2022-07-04T00:28:44;101809.22;;;11.80;100.00
68544;BME280;55534;52.222;5.156;2022-07-04T00:31:10;101960.81;;;12.94;100.00
68544;BME280;55534;52.222;5.156;2022-07-04T00:33:35;102013.19;;;13.24;100.00
68544;BME280;55534;52.222;5.156;2022-07-04T00:36:01;101916.69;;;12.59;100.00
68544;BME280;55534;52.222;5.156;2022-07-04T00:38:26;102064.03;;;13.50;100.00
68544;BME280;55534;52.222;5.156;2022-07-04T00:40:51;101953.22;;;12.78;100.00
68544;BME280;55534;52.222;5.156;2022-07-04T00:43:22;102060.69;;;13.53;100.00
68544;BME280;55534;52.222;5.156;2022-07-04T00:45:48;101783.94;;;11.61;100.00
68544;BME280;55534;52.222;5.156;2022-07-04T00:48:14;101997.28;;;13.03;100.00
68544;BME280;55534;52.222;5.156;2022-07-04T00:50:42;101858.50;;;12.01;100.00
68544;BME280;55534;52.222;5.156;2022-07-04T00:53:08;101948.59;;;12.64;100.00
68544;BME280;55534;52.222;5.156;2022-07-04T00:55:33;102073.75;;;13.39;100.00
68544;BME280;55534;52.222;5.156;2022-07-04T00:57:59;101712.59;;;11.00;100.00
68544;BME280;55534;52.222;5.156;2022-07-04T01:00:24;101657.69;;;10.70;100.00
68544;BME280;55534;52.222;5.156;2022-07-04T01:02:50;102007.38;;;13.01;100.00
68544;BME280;55534;52.222;5.156;2022-07-04T01:05:16;102093.75;;;13.54;100.00
68544;BME280;55534;52.222;5.156;2022-07-04T01:07:42;102077.84;;;13.40;100.00
68544;BME280;55534;52.222;5.156;2022-07-04T01:10:08;101970.38;;;12.68;100.00
68544;BME280;55534;52.222;5.156;2022-07-04T01:12:34;102087.69;;;13.46;100.00
68544;BME280;55534;52.222;5.156;2022-07-04T01:15:00;101910.44;;;12.29;100.00
68544;BME280;55534;52.222;5.156;2022-07-04T01:17:25;101994.72;;;12.69;100.00
68544;BME280;55534;52.222;5.156;2022-07-04T01:19:51;102064.63;;;13.29;100.00
68544;BME280;55534;52.222;5.156;2022-07-04T01:22:16;101944.97;;;12.39;100.00
68544;BME280;55534;52.222;5.156;2022-07-04T01:24:42;101894.16;;;12.13;100.00
68544;BME280;55534;52.222;5.156;2022-07-04T01:27:07;101986.50;;;12.70;100.00
68544;BME280;55534;52.222;5.156;2022-07-04T01:29:32;102038.94;;;13.08;100.00
68544;BME280;55534;52.222;5.156;2022-07-04T01:32:06;102072.09;;;13.27;100.00
68544;BME280;55534;52.222;5.156;2022-07-04T01:34:32;101984.97;;;12.69;100.00
68544;BME280;55534;52.222;5.156;2022-07-04T01:37:01;102092.50;;;13.41;100.00
68544;BME280;55534;52.222;5.156;2022-07-04T01:39:27;102085.00;;;13.39;100.00
68544;BME280;55534;52.222;5.156;2022-07-04T01:41:53;101863.19;;;11.88;100.00
68544;BME280;55534;52.222;5.156;2022-07-04T01:44:20;102077.47;;;13.38;100.00
68544;BME280;55534;52.222;5.156;2022-07-04T01:46:45;102028.78;;;13.03;100.00
68544;BME280;55534;52.222;5.156;2022-07-04T01:49:11;102019.34;;;12.94;100.00
68544;BME280;55534;52.222;5.156;2022-07-04T01:51:46;102036.59;;;12.99;100.00
68544;BME280;55534;52.222;5.156;2022-07-04T01:54:12;102076.28;;;13.31;100.00
68544;BME280;55534;52.222;5.156;2022-07-04T01:56:39;101918.19;;;12.19;100.00
68544;BME280;55534;52.222;5.156;2022-07-04T01:59:04;102055.09;;;13.10;100.00
68544;BME280;55534;52.222;5.156;2022-07-04T02:01:29;102078.47;;;13.26;100.00
68544;BME280;55534;52.222;5.156;2022-07-04T02:04:00;101975.06;;;12.52;100.00
68544;BME280;55534;52.222;5.156;2022-07-04T02:06:27;102079.19;;;13.23;100.00
68544;BME280;55534;52.222;5.156;2022-07-04T02:08:53;102077.69;;;13.22;100.00
68544;BME280;55534;52.222;5.156;2022-07-04T02:11:37;102028.63;;;12.88;100.00
68544;BME280;55534;52.222;5.156;2022-07-04T02:14:21;101986.00;;;12.58;100.00
68544;BME280;55534;52.222;5.156;2022-07-04T02:16:47;102035.34;;;12.86;100.00
68544;BME280;55534;52.222;5.156;2022-07-04T02:19:12;102064.06;;;13.09;100.00
68544;BME280;55534;52.222;5.156;2022-07-04T02:21:38;101905.25;;;11.99;100.00
68544;BME280;55534;52.222;5.156;2022-07-04T02:24:04;101889.06;;;11.90;100.00
68544;BME280;55534;52.222;5.156;2022-07-04T02:26:29;102005.13;;;12.62;100.00
68544;BME280;55534;52.222;5.156;2022-07-04T02:28:55;101966.72;;;12.39;100.00
68544;BME280;55534;52.222;5.156;2022-07-04T02:31:20;101983.72;;;12.52;100.00
68544;BME280;55534;52.222;5.156;2022-07-04T02:33:45;102074.56;;;13.09;100.00
68544;BME280;55534;52.222;5.156;2022-07-04T02:36:11;101944.47;;;12.26;100.00
68544;BME280;55534;52.222;5.156;2022-07-04T02:38:36;102069.66;;;13.07;100.00
68544;BME280;55534;52.222;5.156;2022-07-04T02:41:02;102052.31;;;12.95;100.00
68544;BME280;55534;52.222;5.156;2022-07-04T02:43:27;102007.41;;;12.63;100.00
68544;BME280;55534;52.222;5.156;2022-07-04T02:45:53;102056.09;;;12.98;100.00
68544;BME280;55534;52.222;5.156;2022-07-04T02:48:18;102021.38;;;12.74;100.00
68544;BME280;55534;52.222;5.156;2022-07-04T02:50:44;102024.66;;;12.64;100.00
68544;BME280;55534;52.222;5.156;2022-07-04T02:53:09;102051.09;;;12.86;100.00
68544;BME280;55534;52.222;5.156;2022-07-04T02:55:34;102039.03;;;12.78;100.00
68544;BME280;55534;52.222;5.156;2022-07-04T02:58:00;102026.94;;;12.66;100.00
68544;BME280;55534;52.222;5.156;2022-07-04T03:00:25;102074.44;;;12.98;100.00
68544;BME280;55534;52.222;5.156;2022-07-04T03:02:51;102061.63;;;12.89;100.00
68544;BME280;55534;52.222;5.156;2022-07-04T03:05:16;101997.81;;;12.41;100.00
68544;BME280;55534;52.222;5.156;2022-07-04T03:07:42;102040.88;;;12.73;100.00
68544;BME280;55534;52.222;5.156;2022-07-04T03:10:07;102052.91;;;12.78;100.00
68544;BME280;55534;52.222;5.156;2022-07-04T03:12:33;102038.22;;;12.70;100.00
68544;BME280;55534;52.222;5.156;2022-07-04T03:14:58;102024.22;;;12.59;100.00
68544;BME280;55534;52.222;5.156;2022-07-04T03:17:27;102086.47;;;12.99;100.00
68544;BME280;55534;52.222;5.156;2022-07-04T03:19:55;102008.03;;;12.49;100.00
68544;BME280;55534;52.222;5.156;2022-07-04T03:22:21;102083.09;;;12.99;100.00
68544;BME280;55534;52.222;5.156;2022-07-04T03:24:46;102068.75;;;12.89;100.00
68544;BME280;55534;52.222;5.156;2022-07-04T03:27:11;102055.91;;;12.80;100.00
68544;BME280;55534;52.222;5.156;2022-07-04T03:29:37;101980.06;;;12.27;100.00
68544;BME280;55534;52.222;5.156;2022-07-04T03:32:02;102041.94;;;12.69;100.00
68544;BME280;55534;52.222;5.156;2022-07-04T03:34:28;101978.88;;;12.21;100.00
68544;BME280;55534;52.222;5.156;2022-07-04T03:36:53;101929.41;;;11.89;100.00
68544;BME280;55534;52.222;5.156;2022-07-04T03:39:18;102030.53;;;12.50;100.00
68544;BME280;55534;52.222;5.156;2022-07-04T03:41:44;102030.88;;;12.49;100.00
68544;BME280;55534;52.222;5.156;2022-07-04T03:44:09;101998.13;;;12.35;100.00
68544;BME280;55534;52.222;5.156;2022-07-04T03:46:34;102081.53;;;12.94;100.00
68544;BME280;55534;52.222;5.156;2022-07-04T03:49:00;102073.63;;;12.90;100.00
68544;BME280;55534;52.222;5.156;2022-07-04T03:51:25;102060.03;;;12.78;100.00
68544;BME280;55534;52.222;5.156;2022-07-04T03:53:51;102019.28;;;12.53;100.00
68544;BME280;55534;52.222;5.156;2022-07-04T03:56:16;102088.72;;;12.97;100.00
68544;BME280;55534;52.222;5.156;2022-07-04T03:58:42;101987.56;;;12.28;100.00
68544;BME280;55534;52.222;5.156;2022-07-04T04:01:08;102094.03;;;13.04;100.00
68544;BME280;55534;52.222;5.156;2022-07-04T04:03:34;102098.53;;;13.07;100.00
68544;BME280;55534;52.222;5.156;2022-07-04T04:06:18;102012.47;;;12.45;100.00
68544;BME280;55534;52.222;5.156;2022-07-04T04:08:43;101990.75;;;12.45;100.00
68544;BME280;55534;52.222;5.156;2022-07-04T04:11:09;102096.03;;;13.18;100.00
68544;BME280;55534;52.222;5.156;2022-07-04T04:13:34;102045.19;;;12.96;100.00
68544;BME280;55534;52.222;5.156;2022-07-04T04:16:00;101973.97;;;12.53;100.00
68544;BME280;55534;52.222;5.156;2022-07-04T04:18:25;101923.47;;;12.22;100.00
68544;BME280;55534;52.222;5.156;2022-07-04T04:20:50;102069.47;;;13.27;100.00
68544;BME280;55534;52.222;5.156;2022-07-04T04:23:16;102117.03;;;13.59;100.00
68544;BME280;55534;52.222;5.156;2022-07-04T04:25:41;102041.69;;;13.22;100.00
68544;BME280;55534;52.222;5.156;2022-07-04T04:28:07;101935.75;;;12.55;100.00
68544;BME280;55534;52.222;5.156;2022-07-04T04:30:32;101963.38;;;12.83;100.00
68544;BME280;55534;52.222;5.156;2022-07-04T04:32:59;102074.25;;;13.59;100.00
68544;BME280;55534;52.222;5.156;2022-07-04T04:35:25;102113.47;;;13.85;100.00
68544;BME280;55534;52.222;5.156;2022-07-04T04:37:50;102064.88;;;13.61;100.00
68544;BME280;55534;52.222;5.156;2022-07-04T04:40:16;102032.84;;;13.41;100.00
68544;BME280;55534;52.222;5.156;2022-07-04T04:42:42;102102.22;;;13.88;100.00
68544;BME280;55534;52.222;5.156;2022-07-04T04:45:08;102101.47;;;13.91;100.00
68544;BME280;55534;52.222;5.156;2022-07-04T04:47:34;102125.97;;;14.03;100.00
68544;BME280;55534;52.222;5.156;2022-07-04T04:49:59;102121.47;;;14.07;100.00
68544;BME280;55534;52.222;5.156;2022-07-04T04:52:26;102084.91;;;13.80;100.00
68544;BME280;55534;52.222;5.156;2022-07-04T04:54:51;102031.31;;;13.40;100.00
68544;BME280;55534;52.222;5.156;2022-07-04T04:57:17;102119.97;;;14.06;100.00
68544;BME280;55534;52.222;5.156;2022-07-04T04:59:42;102103.03;;;13.96;100.00
68544;BME280;55534;52.222;5.156;2022-07-04T05:02:07;102026.88;;;13.44;100.00
68544;BME280;55534;52.222;5.156;2022-07-04T05:04:33;102030.66;;;13.50;100.00
68544;BME280;55534;52.222;5.156;2022-07-04T05:06:59;102129.09;;;14.26;100.00
68544;BME280;55534;52.222;5.156;2022-07-04T05:09:24;102043.25;;;13.86;100.00
68544;BME280;55534;52.222;5.156;2022-07-04T05:11:50;102080.97;;;14.19;100.00
68544;BME280;55534;52.222;5.156;2022-07-04T05:14:15;102050.06;;;13.98;100.00
68544;BME280;55534;52.222;5.156;2022-07-04T05:16:41;102055.72;;;14.00;100.00
68544;BME280;55534;52.222;5.156;2022-07-04T05:19:06;102036.19;;;13.97;100.00
68544;BME280;55534;52.222;5.156;2022-07-04T05:21:32;102105.16;;;14.46;100.00
68544;BME280;55534;52.222;5.156;2022-07-04T05:23:57;102108.94;;;14.56;100.00
68544;BME280;55534;52.222;5.156;2022-07-04T05:26:23;102158.00;;;15.00;100.00
68544;BME280;55534;52.222;5.156;2022-07-04T05:28:48;102111.66;;;14.70;100.00
68544;BME280;55534;52.222;5.156;2022-07-04T05:31:14;102122.97;;;14.81;100.00
68544;BME280;55534;52.222;5.156;2022-07-04T05:33:39;102109.44;;;14.86;100.00
68544;BME280;55534;52.222;5.156;2022-07-04T05:36:05;102139.59;;;15.18;100.00
68544;BME280;55534;52.222;5.156;2022-07-04T05:38:31;102157.66;;;15.30;100.00
68544;BME280;55534;52.222;5.156;2022-07-04T05:40:56;102079.31;;;14.80;100.00
68544;BME280;55534;52.222;5.156;2022-07-04T05:43:22;102131.31;;;15.19;100.00
68544;BME280;55534;52.222;5.156;2022-07-04T05:45:47;102154.66;;;15.39;100.00
68544;BME280;55534;52.222;5.156;2022-07-04T05:48:18;102075.97;;;14.90;100.00
68544;BME280;55534;52.222;5.156;2022-07-04T05:50:45;102107.59;;;15.08;100.00
68544;BME280;55534;52.222;5.156;2022-07-04T05:53:10;102118.91;;;15.23;100.00
68544;BME280;55534;52.222;5.156;2022-07-04T05:55:35;102158.81;;;15.61;100.00
68544;BME280;55534;52.222;5.156;2022-07-04T05:58:01;102150.13;;;15.72;100.00
68544;BME280;55534;52.222;5.156;2022-07-04T06:00:27;102131.69;;;15.64;100.00
68544;BME280;55534;52.222;5.156;2022-07-04T06:02:52;102129.06;;;15.64;100.00
68544;BME280;55534;52.222;5.156;2022-07-04T06:05:17;102156.56;;;15.81;100.00
68544;BME280;55534;52.222;5.156;2022-07-04T06:07:43;102170.50;;;15.96;100.00
68544;BME280;55534;52.222;5.156;2022-07-04T06:10:08;102062.44;;;15.35;100.00
68544;BME280;55534;52.222;5.156;2022-07-04T06:12:34;102052.28;;;15.37;100.00
68544;BME280;55534;52.222;5.156;2022-07-04T06:15:00;102056.41;;;15.56;100.00
68544;BME280;55534;52.222;5.156;2022-07-04T06:17:26;102131.28;;;16.05;100.00
68544;BME280;55534;52.222;5.156;2022-07-04T06:19:51;102048.13;;;15.54;100.00
68544;BME280;55534;52.222;5.156;2022-07-04T06:22:16;102156.09;;;16.30;100.00
68544;BME280;55534;52.222;5.156;2022-07-04T06:24:42;102159.09;;;16.35;100.00
68544;BME280;55534;52.222;5.156;2022-07-04T06:27:07;102065.06;;;15.78;100.00
68544;BME280;55534;52.222;5.156;2022-07-04T06:29:33;102119.19;;;16.22;100.00
68544;BME280;55534;52.222;5.156;2022-07-04T06:31:58;102025.53;;;15.64;100.00
68544;BME280;55534;52.222;5.156;2022-07-04T06:34:24;102122.13;;;16.42;100.00
68544;BME280;55534;52.222;5.156;2022-07-04T06:37:08;102029.25;;;15.92;100.00
68544;BME280;55534;52.222;5.156;2022-07-04T06:39:33;102131.81;;;16.71;100.00
68544;BME280;55534;52.222;5.156;2022-07-04T06:41:59;102068.63;;;16.38;100.00
68544;BME280;55534;52.222;5.156;2022-07-04T06:44:24;102082.09;;;16.55;100.00
68544;BME280;55534;52.222;5.156;2022-07-04T06:46:49;102123.03;;;16.92;100.00
68544;BME280;55534;52.222;5.156;2022-07-04T06:49:16;102131.59;;;17.07;100.00
68544;BME280;55534;52.222;5.156;2022-07-04T06:51:41;102113.91;;;17.03;100.00
68544;BME280;55534;52.222;5.156;2022-07-04T06:54:07;102095.84;;;16.95;100.00
68544;BME280;55534;52.222;5.156;2022-07-04T06:56:32;102078.94;;;16.85;100.00
68544;BME280;55534;52.222;5.156;2022-07-04T06:58:57;102060.44;;;16.81;100.00
68544;BME280;55534;52.222;5.156;2022-07-04T07:01:23;102104.66;;;17.30;100.00
68544;BME280;55534;52.222;5.156;2022-07-04T07:03:48;102079.44;;;17.21;100.00
68544;BME280;55534;52.222;5.156;2022-07-04T07:06:14;102112.72;;;17.60;100.00
68544;BME280;55534;52.222;5.156;2022-07-04T07:08:39;102030.06;;;17.11;100.00
68544;BME280;55534;52.222;5.156;2022-07-04T07:11:05;102019.50;;;17.11;100.00
68544;BME280;55534;52.222;5.156;2022-07-04T07:13:47;102107.25;;;17.78;100.00
68544;BME280;55534;52.222;5.156;2022-07-04T07:16:13;102007.44;;;17.10;100.00
68544;BME280;55534;52.222;5.156;2022-07-04T07:18:39;102051.81;;;17.30;100.00
68544;BME280;55534;52.222;5.156;2022-07-04T07:21:04;102016.94;;;17.04;100.00
68544;BME280;55534;52.222;5.156;2022-07-04T07:23:30;102097.13;;;17.70;100.00
68544;BME280;55534;52.222;5.156;2022-07-04T07:25:55;101988.56;;;17.12;100.00
68544;BME280;55534;52.222;5.156;2022-07-04T07:28:21;102086.41;;;17.88;100.00
68544;BME280;55534;52.222;5.156;2022-07-04T07:30:47;102017.63;;;17.50;100.00
68544;BME280;55534;52.222;5.156;2022-07-04T07:33:12;102097.41;;;18.17;100.00
68544;BME280;55534;52.222;5.156;2022-07-04T07:35:38;102110.44;;;18.31;100.00
68544;BME280;55534;52.222;5.156;2022-07-04T07:38:03;102068.25;;;18.20;100.00
68544;BME280;55534;52.222;5.156;2022-07-04T07:40:29;102066.56;;;18.34;100.00
68544;BME280;55534;52.222;5.156;2022-07-04T07:42:54;102109.59;;;18.69;100.00
68544;BME280;55534;52.222;5.156;2022-07-04T07:45:20;102002.38;;;17.99;100.00
68544;BME280;55534;52.222;5.156;2022-07-04T07:47:46;102045.53;;;18.23;100.00
68544;BME280;55534;52.222;5.156;2022-07-04T07:50:12;102038.81;;;18.18;100.00
68544;BME280;55534;52.222;5.156;2022-07-04T07:52:38;102028.91;;;18.22;100.00
68544;BME280;55534;52.222;5.156;2022-07-04T07:55:04;102075.38;;;18.54;100.00
68544;BME280;55534;52.222;5.156;2022-07-04T07:57:30;102055.94;;;18.37;100.00
68544;BME280;55534;52.222;5.156;2022-07-04T07:59:56;102030.84;;;18.18;100.00
68544;BME280;55534;52.222;5.156;2022-07-04T08:02:22;102037.13;;;18.32;100.00
68544;BME280;55534;52.222;5.156;2022-07-04T08:05:08;102072.53;;;18.69;100.00
68544;BME280;55534;52.222;5.156;2022-07-04T08:07:33;102085.28;;;18.77;100.00
68544;BME280;55534;52.222;5.156;2022-07-04T08:09:59;102089.38;;;18.82;100.00
68544;BME280;55534;52.222;5.156;2022-07-04T08:12:24;102066.50;;;18.68;100.00
68544;BME280;55534;52.222;5.156;2022-07-04T08:14:50;102037.59;;;18.50;100.00
68544;BME280;55534;52.222;5.156;2022-07-04T08:17:15;101993.25;;;18.31;100.00
68544;BME280;55534;52.222;5.156;2022-07-04T08:19:40;102086.81;;;19.02;100.00
68544;BME280;55534;52.222;5.156;2022-07-04T08:22:06;102069.75;;;19.03;100.00
68544;BME280;55534;52.222;5.156;2022-07-04T08:24:31;102067.16;;;18.99;100.00
68544;BME280;55534;52.222;5.156;2022-07-04T08:26:57;102056.28;;;18.94;100.00
68544;BME280;55534;52.222;5.156;2022-07-04T08:29:22;102040.44;;;18.90;100.00
68544;BME280;55534;52.222;5.156;2022-07-04T08:31:48;102122.34;;;19.52;100.00
68544;BME280;55534;52.222;5.156;2022-07-04T08:34:13;102049.09;;;19.18;100.00
68544;BME280;55534;52.222;5.156;2022-07-04T08:36:39;102039.69;;;19.13;100.00
68544;BME280;55534;52.222;5.156;2022-07-04T08:39:05;102116.13;;;19.62;100.00
68544;BME280;55534;52.222;5.156;2022-07-04T08:41:37;102131.47;;;19.74;100.00
68544;BME280;55534;52.222;5.156;2022-07-04T08:44:03;102104.22;;;19.50;100.00
68544;BME280;55534;52.222;5.156;2022-07-04T08:46:30;102088.72;;;19.49;100.00
68544;BME280;55534;52.222;5.156;2022-07-04T08:48:58;102133.66;;;20.00;100.00
68544;BME280;55534;52.222;5.156;2022-07-04T08:53:59;102064.75;;;19.76;93.60
68544;BME280;55534;52.222;5.156;2022-07-04T08:56:26;102068.91;;;19.53;91.61
68544;BME280;55534;52.222;5.156;2022-07-04T08:59:13;102088.03;;;19.65;92.41
68544;BME280;55534;52.222;5.156;2022-07-04T09:01:40;102086.47;;;19.67;96.47
68544;BME280;55534;52.222;5.156;2022-07-04T09:04:08;102136.03;;;20.14;100.00
68544;BME280;55534;52.222;5.156;2022-07-04T09:06:34;102107.03;;;20.23;100.00
68544;BME280;55534;52.222;5.156;2022-07-04T09:08:59;102088.34;;;20.27;98.31
68544;BME280;55534;52.222;5.156;2022-07-04T09:11:25;102099.75;;;20.27;88.85
68544;BME280;55534;52.222;5.156;2022-07-04T09:13:51;102069.69;;;19.94;89.16
68544;BME280;55534;52.222;5.156;2022-07-04T09:16:16;102037.84;;;19.54;87.03
68544;BME280;55534;52.222;5.156;2022-07-04T09:18:41;102032.34;;;19.45;88.42
68544;BME280;55534;52.222;5.156;2022-07-04T09:21:08;102128.97;;;19.87;89.10
68544;BME280;55534;52.222;5.156;2022-07-04T09:23:43;102107.06;;;19.59;88.75
68544;BME280;55534;52.222;5.156;2022-07-04T09:26:20;102138.69;;;19.74;90.09
68544;BME280;55534;52.222;5.156;2022-07-04T09:28:58;102019.38;;;18.83;91.33
68544;BME280;55534;52.222;5.156;2022-07-04T09:31:29;102094.28;;;19.31;91.62
68544;BME280;55534;52.222;5.156;2022-07-04T09:34:02;102076.50;;;19.31;92.08
68544;BME280;55534;52.222;5.156;2022-07-04T09:36:39;102082.78;;;19.41;96.32
68544;BME280;55534;52.222;5.156;2022-07-04T09:41:31;102116.91;;;20.03;87.79
68544;BME280;55534;52.222;5.156;2022-07-04T09:44:06;102054.13;;;19.76;87.56
68544;BME280;55534;52.222;5.156;2022-07-04T09:46:33;101969.97;;;19.36;83.87
68544;BME280;55534;52.222;5.156;2022-07-04T09:48:58;101913.03;;;19.05;80.69
68544;BME280;55534;52.222;5.156;2022-07-04T09:51:42;102012.50;;;20.09;76.54
68544;BME280;55534;52.222;5.156;2022-07-04T09:54:18;102136.97;;;20.97;69.83
68544;BME280;55534;52.222;5.156;2022-07-04T09:56:46;101966.53;;;19.96;73.76
68544;BME280;55534;52.222;5.156;2022-07-04T09:59:12;102142.78;;;21.24;67.94
68544;BME280;55534;52.222;5.156;2022-07-04T10:01:38;101984.16;;;20.23;64.11
68544;BME280;55534;52.222;5.156;2022-07-04T10:04:05;102028.19;;;20.73;66.32
68544;BME280;55534;52.222;5.156;2022-07-04T10:06:32;102130.63;;;21.56;64.71
68544;BME280;55534;52.222;5.156;2022-07-04T10:09:07;102075.00;;;21.00;64.74
68544;BME280;55534;52.222;5.156;2022-07-04T10:11:33;102113.50;;;21.41;67.17
68544;BME280;55534;52.222;5.156;2022-07-04T10:13:59;101982.03;;;20.67;65.52
68544;BME280;55534;52.222;5.156;2022-07-04T10:16:25;102088.38;;;21.58;62.36
68544;BME280;55534;52.222;5.156;2022-07-04T10:18:54;102049.84;;;21.33;61.95
68544;BME280;55534;52.222;5.156;2022-07-04T10:21:20;102131.94;;;22.06;63.07
68544;BME280;55534;52.222;5.156;2022-07-04T10:23:45;102062.38;;;21.49;58.70
68544;BME280;55534;52.222;5.156;2022-07-04T10:26:11;102080.41;;;21.42;59.93
68544;BME280;55534;52.222;5.156;2022-07-04T10:28:37;102021.84;;;21.00;59.66
68544;BME280;55534;52.222;5.156;2022-07-04T10:31:03;102102.38;;;21.88;59.86
68544;BME280;55534;52.222;5.156;2022-07-04T10:33:29;102129.56;;;22.25;58.52
68544;BME280;55534;52.222;5.156;2022-07-04T10:35:56;102136.56;;;22.31;59.20
68544;BME280;55534;52.222;5.156;2022-07-04T10:40:55;101928.84;;;21.54;56.07
68544;BME280;55534;52.222;5.156;2022-07-04T10:45:50;101996.09;;;21.55;56.23
68544;BME280;55534;52.222;5.156;2022-07-04T10:48:22;102127.00;;;22.47;55.12
68544;BME280;55534;52.222;5.156;2022-07-04T10:51:05;102075.41;;;22.28;56.74
68544;BME280;55534;52.222;5.156;2022-07-04T10:53:32;102039.50;;;22.20;57.37
68544;BME280;55534;52.222;5.156;2022-07-04T10:58:42;101975.91;;;21.70;56.31
68544;BME280;55534;52.222;5.156;2022-07-04T11:01:14;102033.84;;;22.18;57.28
68544;BME280;55534;52.222;5.156;2022-07-04T11:03:48;102010.13;;;21.98;57.60
68544;BME280;55534;52.222;5.156;2022-07-04T11:09:16;102088.13;;;22.49;57.83
68544;BME280;55534;52.222;5.156;2022-07-04T11:16:57;102118.13;;;22.76;55.42
68544;BME280;55534;52.222;5.156;2022-07-04T11:19:23;102050.25;;;22.03;54.83
68544;BME280;55534;52.222;5.156;2022-07-04T11:21:48;102055.69;;;22.12;56.94
68544;BME280;55534;52.222;5.156;2022-07-04T11:24:14;102027.78;;;22.04;57.79
68544;BME280;55534;52.222;5.156;2022-07-04T11:26:39;102090.16;;;22.93;58.39
68544;BME280;55534;52.222;5.156;2022-07-04T11:29:05;102091.19;;;23.21;56.61
68544;BME280;55534;52.222;5.156;2022-07-04T11:31:57;102109.81;;;23.56;56.33
68544;BME280;55534;52.222;5.156;2022-07-04T11:34:23;102124.81;;;23.41;54.57
68544;BME280;55534;52.222;5.156;2022-07-04T11:36:50;102055.56;;;23.15;55.12
68544;BME280;55534;52.222;5.156;2022-07-04T11:39:18;102119.94;;;23.83;53.94
68544;BME280;55534;52.222;5.156;2022-07-04T11:41:49;102064.03;;;23.36;51.93
68544;BME280;55534;52.222;5.156;2022-07-04T11:44:39;102115.03;;;23.60;52.05
68544;BME280;55534;52.222;5.156;2022-07-04T11:47:43;102115.50;;;23.80;53.87
68544;BME280;55534;52.222;5.156;2022-07-04T11:50:16;102110.38;;;23.73;52.65
68544;BME280;55534;52.222;5.156;2022-07-04T11:52:46;102120.19;;;23.54;51.83
68544;BME280;55534;52.222;5.156;2022-07-04T11:55:14;102107.56;;;23.33;51.15
68544;BME280;55534;52.222;5.156;2022-07-04T11:57:52;102052.84;;;23.06;52.26
68544;BME280;55534;52.222;5.156;2022-07-04T12:00:24;102114.38;;;23.68;51.42
68544;BME280;55534;52.222;5.156;2022-07-04T12:02:50;101971.06;;;22.90;51.47
68544;BME280;55534;52.222;5.156;2022-07-04T12:05:17;102108.50;;;24.05;53.22
68544;BME280;55534;52.222;5.156;2022-07-04T12:07:45;102061.16;;;24.05;51.11
68544;BME280;55534;52.222;5.156;2022-07-04T12:10:16;102098.50;;;24.68;48.74
68544;BME280;55534;52.222;5.156;2022-07-04T12:15:18;102075.34;;;25.02;47.76
68544;BME280;55534;52.222;5.156;2022-07-04T12:17:44;101996.66;;;24.16;46.52
68544;BME280;55534;52.222;5.156;2022-07-04T12:20:14;102038.34;;;24.14;47.55
68544;BME280;55534;52.222;5.156;2022-07-04T12:22:59;101975.78;;;23.52;50.56
68544;BME280;55534;52.222;5.156;2022-07-04T12:25:29;102090.41;;;24.09;48.23
68544;BME280;55534;52.222;5.156;2022-07-04T12:28:02;102044.06;;;23.72;49.07
68544;BME280;55534;52.222;5.156;2022-07-04T12:30:33;102033.97;;;23.44;48.37
68544;BME280;55534;52.222;5.156;2022-07-04T12:33:04;101948.56;;;23.35;48.18
68544;BME280;55534;52.222;5.156;2022-07-04T12:35:43;102096.75;;;24.43;47.08
68544;BME280;55534;52.222;5.156;2022-07-04T12:38:20;102101.28;;;24.55;47.85
68544;BME280;55534;52.222;5.156;2022-07-04T12:43:17;102088.25;;;24.85;48.66
68544;BME280;55534;52.222;5.156;2022-07-04T12:45:44;102036.41;;;25.19;47.04
68544;BME280;55534;52.222;5.156;2022-07-04T12:48:17;102088.91;;;25.96;45.30
68544;BME280;55534;52.222;5.156;2022-07-04T12:50:44;102049.91;;;26.29;44.04
68544;BME280;55534;52.222;5.156;2022-07-04T12:53:09;101957.94;;;25.32;41.82
68544;BME280;55534;52.222;5.156;2022-07-04T12:55:37;102050.06;;;26.01;42.54
68544;BME280;55534;52.222;5.156;2022-07-04T12:58:02;101759.09;;;24.74;41.14
68544;BME280;55534;52.222;5.156;2022-07-04T13:00:28;101943.19;;;26.27;42.93
68544;BME280;55534;52.222;5.156;2022-07-04T13:02:53;101967.78;;;25.59;41.39
68544;BME280;55534;52.222;5.156;2022-07-04T13:05:19;102093.50;;;26.05;43.27
68544;BME280;55534;52.222;5.156;2022-07-04T13:07:45;102018.72;;;25.03;43.24
68544;BME280;55534;52.222;5.156;2022-07-04T13:10:11;102043.53;;;24.67;44.77